sensor_id;sensor_type;location;lat;lon;timestamp;P1;durP1;ratioP1;P2;durP2;ratioP2
17650;SDS011;26663;59.302;18.082;2022-09-25T00:02:29;3.08;;;2.97;;
17650;SDS011;26663;59.302;18.082;2022-09-25T00:05:34;4.05;;;3.65;;
17650;SDS011;26663;59.302;18.082;2022-09-25T00:08:40;4.47;;;3.20;;
17650;SDS011;26663;59.302;18.082;2022-09-25T00:11:44;4.93;;;3.38;;
17650;SDS011;26663;59.302;18.082;2022-09-25T00:14:50;3.40;;;3.20;;
17650;SDS011;26663;59.302;18.082;2022-09-25T00:17:54;3.38;;;3.13;;
17650;SDS011;26663;59.302;18.082;2022-09-25T00:20:59;3.38;;;3.28;;
17650;SDS011;26663;59.302;18.082;2022-09-25T00:24:03;3.42;;;3.20;;
17650;SDS011;26663;59.302;18.082;2022-09-25T00:27:11;4.10;;;3.63;;
17650;SDS011;26663;59.302;18.082;2022-09-25T00:30:18;3.53;;;3.40;;
17650;SDS011;26663;59.302;18.082;2022-09-25T00:33:22;3.85;;;3.60;;
17650;SDS011;26663;59.302;18.082;2022-09-25T00:36:26;3.83;;;3.58;;
17650;SDS011;26663;59.302;18.082;2022-09-25T00:39:31;3.78;;;3.67;;
17650;SDS011;26663;59.302;18.082;2022-09-25T00:42:36;4.72;;;3.60;;
17650;SDS011;26663;59.302;18.082;2022-09-25T00:45:42;3.92;;;3.63;;
17650;SDS011;26663;59.302;18.082;2022-09-25T00:48:47;3.60;;;3.45;;
17650;SDS011;26663;59.302;18.082;2022-09-25T00:51:55;4.75;;;4.40;;
17650;SDS011;26663;59.302;18.082;2022-09-25T00:55:03;4.68;;;4.30;;
17650;SDS011;26663;59.302;18.082;2022-09-25T00:58:11;5.63;;;4.10;;
17650;SDS011;26663;59.302;18.082;2022-09-25T01:01:18;4.15;;;3.92;;
17650;SDS011;26663;59.302;18.082;2022-09-25T01:04:23;3.90;;;3.70;;
17650;SDS011;26663;59.302;18.082;2022-09-25T01:07:29;4.03;;;3.90;;
17650;SDS011;26663;59.302;18.082;2022-09-25T01:10:34;4.63;;;4.05;;
17650;SDS011;26663;59.302;18.082;2022-09-25T01:13:39;4.38;;;4.10;;
17650;SDS011;26663;59.302;18.082;2022-09-25T01:16:45;4.75;;;4.40;;
17650;SDS011;26663;59.302;18.082;2022-09-25T01:19:59;4.20;;;3.80;;
17650;SDS011;26663;59.302;18.082;2022-09-25T01:23:15;3.90;;;3.80;;
17650;SDS011;26663;59.302;18.082;2022-09-25T01:26:35;4.53;;;3.75;;
17650;SDS011;26663;59.302;18.082;2022-09-25T01:30:14;4.32;;;4.03;;
17650;SDS011;26663;59.302;18.082;2022-09-25T01:33:21;4.20;;;4.00;;
17650;SDS011;26663;59.302;18.082;2022-09-25T01:36:28;3.70;;;3.60;;
17650;SDS011;26663;59.302;18.082;2022-09-25T01:39:37;4.28;;;4.07;;
17650;SDS011;26663;59.302;18.082;2022-09-25T01:42:47;3.70;;;3.50;;
17650;SDS011;26663;59.302;18.082;2022-09-25T01:45:57;4.68;;;3.75;;
17650;SDS011;26663;59.302;18.082;2022-09-25T01:49:05;4.30;;;4.00;;
17650;SDS011;26663;59.302;18.082;2022-09-25T01:52:12;6.30;;;4.28;;
17650;SDS011;26663;59.302;18.082;2022-09-25T01:55:22;4.20;;;3.85;;
17650;SDS011;26663;59.302;18.082;2022-09-25T01:58:30;3.78;;;3.58;;
17650;SDS011;26663;59.302;18.082;2022-09-25T02:01:40;4.00;;;3.80;;
17650;SDS011;26663;59.302;18.082;2022-09-25T02:04:46;4.40;;;4.10;;
17650;SDS011;26663;59.302;18.082;2022-09-25T02:07:57;4.50;;;4.20;;
17650;SDS011;26663;59.302;18.082;2022-09-25T02:11:05;4.00;;;3.90;;
17650;SDS011;26663;59.302;18.082;2022-09-25T02:14:12;4.25;;;4.10;;
17650;SDS011;26663;59.302;18.082;2022-09-25T02:17:24;4.90;;;4.32;;
17650;SDS011;26663;59.302;18.082;2022-09-25T02:20:51;4.53;;;4.20;;
17650;SDS011;26663;59.302;18.082;2022-09-25T02:24:03;5.95;;;3.97;;
17650;SDS011;26663;59.302;18.082;2022-09-25T02:27:16;4.97;;;3.92;;
17650;SDS011;26663;59.302;18.082;2022-09-25T02:30:21;4.22;;;4.03;;
17650;SDS011;26663;59.302;18.082;2022-09-25T02:33:27;4.47;;;4.25;;
17650;SDS011;26663;59.302;18.082;2022-09-25T02:36:32;4.18;;;4.00;;
17650;SDS011;26663;59.302;18.082;2022-09-25T02:39:37;4.72;;;4.25;;
17650;SDS011;26663;59.302;18.082;2022-09-25T02:42:42;6.55;;;4.25;;
17650;SDS011;26663;59.302;18.082;2022-09-25T02:45:51;4.40;;;4.30;;
17650;SDS011;26663;59.302;18.082;2022-09-25T02:49:11;4.50;;;4.20;;
17650;SDS011;26663;59.302;18.082;2022-09-25T02:52:25;5.07;;;4.07;;
17650;SDS011;26663;59.302;18.082;2022-09-25T02:55:36;4.70;;;4.22;;
17650;SDS011;26663;59.302;18.082;2022-09-25T02:58:43;3.47;;;3.25;;
17650;SDS011;26663;59.302;18.082;2022-09-25T03:01:53;3.83;;;3.60;;
17650;SDS011;26663;59.302;18.082;2022-09-25T03:04:59;4.28;;;4.07;;
17650;SDS011;26663;59.302;18.082;2022-09-25T03:08:04;3.90;;;3.60;;
17650;SDS011;26663;59.302;18.082;2022-09-25T03:11:41;4.22;;;4.10;;
17650;SDS011;26663;59.302;18.082;2022-09-25T03:14:46;3.65;;;3.53;;
17650;SDS011;26663;59.302;18.082;2022-09-25T03:17:50;3.75;;;3.65;;
17650;SDS011;26663;59.302;18.082;2022-09-25T03:20:55;3.80;;;3.60;;
17650;SDS011;26663;59.302;18.082;2022-09-25T03:24:00;3.85;;;3.60;;
17650;SDS011;26663;59.302;18.082;2022-09-25T03:27:04;7.20;;;3.80;;
17650;SDS011;26663;59.302;18.082;2022-09-25T03:30:09;4.10;;;3.70;;
17650;SDS011;26663;59.302;18.082;2022-09-25T03:33:17;3.72;;;3.63;;
17650;SDS011;26663;59.302;18.082;2022-09-25T03:36:23;3.53;;;3.33;;
17650;SDS011;26663;59.302;18.082;2022-09-25T03:39:28;11.05;;;4.07;;
17650;SDS011;26663;59.302;18.082;2022-09-25T03:42:33;3.65;;;3.55;;
17650;SDS011;26663;59.302;18.082;2022-09-25T03:45:37;3.30;;;3.17;;
17650;SDS011;26663;59.302;18.082;2022-09-25T03:48:41;3.67;;;3.58;;
17650;SDS011;26663;59.302;18.082;2022-09-25T03:51:47;3.67;;;3.58;;
17650;SDS011;26663;59.302;18.082;2022-09-25T03:54:51;4.22;;;3.95;;
17650;SDS011;26663;59.302;18.082;2022-09-25T03:57:55;3.17;;;3.08;;
17650;SDS011;26663;59.302;18.082;2022-09-25T04:01:00;4.25;;;3.95;;
17650;SDS011;26663;59.302;18.082;2022-09-25T04:04:04;3.30;;;3.20;;
17650;SDS011;26663;59.302;18.082;2022-09-25T04:07:10;3.65;;;3.35;;
17650;SDS011;26663;59.302;18.082;2022-09-25T04:10:14;3.67;;;3.47;;
17650;SDS011;26663;59.302;18.082;2022-09-25T04:13:19;3.80;;;3.40;;
17650;SDS011;26663;59.302;18.082;2022-09-25T04:16:23;3.13;;;3.03;;
17650;SDS011;26663;59.302;18.082;2022-09-25T04:19:28;3.70;;;3.63;;
17650;SDS011;26663;59.302;18.082;2022-09-25T04:22:33;3.60;;;3.40;;
17650;SDS011;26663;59.302;18.082;2022-09-25T04:25:38;3.53;;;3.42;;
17650;SDS011;26663;59.302;18.082;2022-09-25T04:28:42;4.07;;;3.80;;
17650;SDS011;26663;59.302;18.082;2022-09-25T04:31:47;3.83;;;3.50;;
17650;SDS011;26663;59.302;18.082;2022-09-25T04:35:11;3.58;;;3.28;;
17650;SDS011;26663;59.302;18.082;2022-09-25T04:38:16;3.38;;;3.33;;
17650;SDS011;26663;59.302;18.082;2022-09-25T04:41:20;3.45;;;3.35;;
17650;SDS011;26663;59.302;18.082;2022-09-25T04:44:25;3.70;;;3.50;;
17650;SDS011;26663;59.302;18.082;2022-09-25T04:47:29;3.40;;;3.30;;
17650;SDS011;26663;59.302;18.082;2022-09-25T04:50:33;3.17;;;3.08;;
17650;SDS011;26663;59.302;18.082;2022-09-25T04:53:39;3.70;;;3.60;;
17650;SDS011;26663;59.302;18.082;2022-09-25T04:56:43;3.63;;;3.30;;
17650;SDS011;26663;59.302;18.082;2022-09-25T04:59:47;3.78;;;3.60;;
17650;SDS011;26663;59.302;18.082;2022-09-25T05:02:52;3.30;;;3.20;;
17650;SDS011;26663;59.302;18.082;2022-09-25T05:05:56;3.55;;;3.45;;
17650;SDS011;26663;59.302;18.082;2022-09-25T05:09:02;3.45;;;3.30;;
17650;SDS011;26663;59.302;18.082;2022-09-25T05:12:07;3.40;;;3.30;;
17650;SDS011;26663;59.302;18.082;2022-09-25T05:15:12;5.03;;;3.20;;
17650;SDS011;26663;59.302;18.082;2022-09-25T05:18:18;3.50;;;3.28;;
17650;SDS011;26663;59.302;18.082;2022-09-25T05:21:23;3.28;;;3.05;;
17650;SDS011;26663;59.302;18.082;2022-09-25T05:24:29;3.63;;;3.30;;
17650;SDS011;26663;59.302;18.082;2022-09-25T05:27:33;3.25;;;3.15;;
17650;SDS011;26663;59.302;18.082;2022-09-25T05:30:38;3.53;;;3.30;;
17650;SDS011;26663;59.302;18.082;2022-09-25T05:33:42;3.97;;;3.75;;
17650;SDS011;26663;59.302;18.082;2022-09-25T05:36:46;3.42;;;3.25;;
17650;SDS011;26663;59.302;18.082;2022-09-25T05:39:52;3.75;;;3.55;;
17650;SDS011;26663;59.302;18.082;2022-09-25T05:42:56;3.28;;;3.20;;
17650;SDS011;26663;59.302;18.082;2022-09-25T05:46:01;6.00;;;3.53;;
17650;SDS011;26663;59.302;18.082;2022-09-25T05:49:05;3.45;;;3.20;;
17650;SDS011;26663;59.302;18.082;2022-09-25T05:52:10;3.85;;;3.55;;
17650;SDS011;26663;59.302;18.082;2022-09-25T05:55:16;3.63;;;3.53;;
17650;SDS011;26663;59.302;18.082;2022-09-25T05:58:20;3.50;;;3.40;;
17650;SDS011;26663;59.302;18.082;2022-09-25T06:01:24;3.60;;;3.33;;
17650;SDS011;26663;59.302;18.082;2022-09-25T06:04:28;3.58;;;3.47;;
17650;SDS011;26663;59.302;18.082;2022-09-25T06:07:33;3.63;;;3.53;;
17650;SDS011;26663;59.302;18.082;2022-09-25T06:10:39;3.90;;;3.60;;
17650;SDS011;26663;59.302;18.082;2022-09-25T06:13:47;3.95;;;3.70;;
17650;SDS011;26663;59.302;18.082;2022-09-25T06:16:55;4.15;;;4.00;;
17650;SDS011;26663;59.302;18.082;2022-09-25T06:20:00;4.18;;;3.97;;
17650;SDS011;26663;59.302;18.082;2022-09-25T06:23:22;3.88;;;3.70;;
17650;SDS011;26663;59.302;18.082;2022-09-25T06:26:28;3.40;;;3.20;;
17650;SDS011;26663;59.302;18.082;2022-09-25T06:29:32;4.45;;;4.00;;
17650;SDS011;26663;59.302;18.082;2022-09-25T06:32:37;3.70;;;3.45;;
17650;SDS011;26663;59.302;18.082;2022-09-25T06:35:41;3.90;;;3.80;;
17650;SDS011;26663;59.302;18.082;2022-09-25T06:38:47;3.63;;;3.42;;
17650;SDS011;26663;59.302;18.082;2022-09-25T06:41:53;4.30;;;4.10;;
17650;SDS011;26663;59.302;18.082;2022-09-25T06:44:57;4.35;;;4.07;;
17650;SDS011;26663;59.302;18.082;2022-09-25T06:48:02;3.95;;;3.80;;
17650;SDS011;26663;59.302;18.082;2022-09-25T06:51:09;3.85;;;3.70;;
17650;SDS011;26663;59.302;18.082;2022-09-25T06:54:13;4.03;;;3.90;;
17650;SDS011;26663;59.302;18.082;2022-09-25T06:57:19;4.55;;;4.25;;
17650;SDS011;26663;59.302;18.082;2022-09-25T07:00:23;3.90;;;3.80;;
17650;SDS011;26663;59.302;18.082;2022-09-25T07:03:27;3.80;;;3.60;;
17650;SDS011;26663;59.302;18.082;2022-09-25T07:06:46;3.17;;;3.10;;
17650;SDS011;26663;59.302;18.082;2022-09-25T07:09:51;3.03;;;2.95;;
17650;SDS011;26663;59.302;18.082;2022-09-25T07:12:56;3.28;;;3.15;;
17650;SDS011;26663;59.302;18.082;2022-09-25T07:16:02;3.22;;;2.97;;
17650;SDS011;26663;59.302;18.082;2022-09-25T07:19:09;3.30;;;3.10;;
17650;SDS011;26663;59.302;18.082;2022-09-25T07:22:13;3.30;;;3.00;;
17650;SDS011;26663;59.302;18.082;2022-09-25T07:25:17;3.30;;;3.20;;
17650;SDS011;26663;59.302;18.082;2022-09-25T07:28:23;3.42;;;3.28;;
17650;SDS011;26663;59.302;18.082;2022-09-25T07:31:28;3.10;;;3.00;;
17650;SDS011;26663;59.302;18.082;2022-09-25T07:34:34;3.50;;;3.30;;
17650;SDS011;26663;59.302;18.082;2022-09-25T07:37:39;4.07;;;3.40;;
17650;SDS011;26663;59.302;18.082;2022-09-25T07:40:44;3.50;;;3.33;;
17650;SDS011;26663;59.302;18.082;2022-09-25T07:43:51;3.45;;;3.20;;
17650;SDS011;26663;59.302;18.082;2022-09-25T07:47:17;2.95;;;2.70;;
17650;SDS011;26663;59.302;18.082;2022-09-25T07:50:21;3.22;;;3.08;;
17650;SDS011;26663;59.302;18.082;2022-09-25T07:53:25;3.00;;;2.90;;
17650;SDS011;26663;59.302;18.082;2022-09-25T07:56:30;2.60;;;2.60;;
17650;SDS011;26663;59.302;18.082;2022-09-25T07:59:36;3.10;;;2.65;;
17650;SDS011;26663;59.302;18.082;2022-09-25T08:02:41;2.70;;;2.70;;
17650;SDS011;26663;59.302;18.082;2022-09-25T08:05:45;2.63;;;2.42;;
17650;SDS011;26663;59.302;18.082;2022-09-25T08:08:50;3.88;;;2.58;;
17650;SDS011;26663;59.302;18.082;2022-09-25T08:11:54;2.63;;;2.53;;
17650;SDS011;26663;59.302;18.082;2022-09-25T08:14:59;3.15;;;2.92;;
17650;SDS011;26663;59.302;18.082;2022-09-25T08:18:04;2.53;;;2.42;;
17650;SDS011;26663;59.302;18.082;2022-09-25T08:21:09;2.95;;;2.80;;
17650;SDS011;26663;59.302;18.082;2022-09-25T08:24:15;4.40;;;2.63;;
17650;SDS011;26663;59.302;18.082;2022-09-25T08:27:19;2.47;;;2.38;;
17650;SDS011;26663;59.302;18.082;2022-09-25T08:30:25;2.13;;;2.10;;
17650;SDS011;26663;59.302;18.082;2022-09-25T08:33:30;2.30;;;2.30;;
17650;SDS011;26663;59.302;18.082;2022-09-25T08:36:35;2.45;;;2.35;;
17650;SDS011;26663;59.302;18.082;2022-09-25T08:39:39;2.40;;;2.10;;
17650;SDS011;26663;59.302;18.082;2022-09-25T08:42:43;2.58;;;2.20;;
17650;SDS011;26663;59.302;18.082;2022-09-25T08:45:51;2.30;;;2.13;;
17650;SDS011;26663;59.302;18.082;2022-09-25T08:49:14;2.58;;;2.38;;
17650;SDS011;26663;59.302;18.082;2022-09-25T08:52:21;2.20;;;2.20;;
17650;SDS011;26663;59.302;18.082;2022-09-25T08:55:26;2.47;;;2.30;;
17650;SDS011;26663;59.302;18.082;2022-09-25T08:58:53;2.20;;;2.20;;
17650;SDS011;26663;59.302;18.082;2022-09-25T09:02:12;2.25;;;2.25;;
17650;SDS011;26663;59.302;18.082;2022-09-25T09:05:19;3.65;;;1.77;;
17650;SDS011;26663;59.302;18.082;2022-09-25T09:08:27;2.00;;;1.90;;
17650;SDS011;26663;59.302;18.082;2022-09-25T09:11:34;4.50;;;2.05;;
17650;SDS011;26663;59.302;18.082;2022-09-25T09:14:43;1.88;;;1.88;;
17650;SDS011;26663;59.302;18.082;2022-09-25T09:17:50;1.90;;;1.90;;
17650;SDS011;26663;59.302;18.082;2022-09-25T09:20:56;3.25;;;1.77;;
17650;SDS011;26663;59.302;18.082;2022-09-25T09:24:04;1.98;;;1.80;;
17650;SDS011;26663;59.302;18.082;2022-09-25T09:27:19;1.90;;;1.90;;
17650;SDS011;26663;59.302;18.082;2022-09-25T09:30:39;2.17;;;2.00;;
17650;SDS011;26663;59.302;18.082;2022-09-25T09:33:54;2.05;;;2.05;;
17650;SDS011;26663;59.302;18.082;2022-09-25T09:37:09;2.10;;;2.10;;
17650;SDS011;26663;59.302;18.082;2022-09-25T09:40:21;2.83;;;2.28;;
17650;SDS011;26663;59.302;18.082;2022-09-25T09:43:48;1.92;;;1.80;;
17650;SDS011;26663;59.302;18.082;2022-09-25T09:47:04;1.65;;;1.60;;
17650;SDS011;26663;59.302;18.082;2022-09-25T09:50:25;3.03;;;2.10;;
17650;SDS011;26663;59.302;18.082;2022-09-25T09:53:47;1.73;;;1.63;;
17650;SDS011;26663;59.302;18.082;2022-09-25T09:56:55;1.90;;;1.80;;
17650;SDS011;26663;59.302;18.082;2022-09-25T10:00:02;3.97;;;1.90;;
17650;SDS011;26663;59.302;18.082;2022-09-25T10:03:17;2.03;;;2.00;;
17650;SDS011;26663;59.302;18.082;2022-09-25T10:06:26;1.92;;;1.83;;
17650;SDS011;26663;59.302;18.082;2022-09-25T10:09:32;1.85;;;1.85;;
17650;SDS011;26663;59.302;18.082;2022-09-25T10:12:38;2.05;;;2.00;;
17650;SDS011;26663;59.302;18.082;2022-09-25T10:15:44;2.17;;;1.77;;
17650;SDS011;26663;59.302;18.082;2022-09-25T10:18:58;1.80;;;1.80;;
17650;SDS011;26663;59.302;18.082;2022-09-25T10:22:10;1.52;;;1.50;;
17650;SDS011;26663;59.302;18.082;2022-09-25T10:25:32;1.67;;;1.67;;
17650;SDS011;26663;59.302;18.082;2022-09-25T10:28:39;1.42;;;1.40;;
17650;SDS011;26663;59.302;18.082;2022-09-25T10:31:45;1.73;;;1.63;;
17650;SDS011;26663;59.302;18.082;2022-09-25T10:34:49;1.80;;;1.80;;
17650;SDS011;26663;59.302;18.082;2022-09-25T10:37:58;3.53;;;2.00;;
17650;SDS011;26663;59.302;18.082;2022-09-25T10:41:05;1.70;;;1.70;;
17650;SDS011;26663;59.302;18.082;2022-09-25T10:44:18;3.25;;;1.95;;
17650;SDS011;26663;59.302;18.082;2022-09-25T10:47:27;1.73;;;1.73;;
17650;SDS011;26663;59.302;18.082;2022-09-25T10:51:04;2.10;;;2.10;;
17650;SDS011;26663;59.302;18.082;2022-09-25T10:54:11;1.75;;;1.75;;
17650;SDS011;26663;59.302;18.082;2022-09-25T10:57:21;1.60;;;1.60;;
17650;SDS011;26663;59.302;18.082;2022-09-25T11:00:38;2.38;;;1.73;;
17650;SDS011;26663;59.302;18.082;2022-09-25T11:03:47;1.50;;;1.50;;
17650;SDS011;26663;59.302;18.082;2022-09-25T11:06:55;1.92;;;1.88;;
17650;SDS011;26663;59.302;18.082;2022-09-25T11:10:04;1.95;;;1.83;;
17650;SDS011;26663;59.302;18.082;2022-09-25T11:13:24;1.90;;;1.80;;
17650;SDS011;26663;59.302;18.082;2022-09-25T11:16:42;1.65;;;1.65;;
17650;SDS011;26663;59.302;18.082;2022-09-25T11:19:53;2.50;;;2.40;;
17650;SDS011;26663;59.302;18.082;2022-09-25T11:23:27;1.90;;;1.90;;
17650;SDS011;26663;59.302;18.082;2022-09-25T11:26:39;2.25;;;1.67;;
17650;SDS011;26663;59.302;18.082;2022-09-25T11:29:49;1.90;;;1.80;;
17650;SDS011;26663;59.302;18.082;2022-09-25T11:33:03;1.77;;;1.77;;
17650;SDS011;26663;59.302;18.082;2022-09-25T11:36:14;1.67;;;1.67;;
17650;SDS011;26663;59.302;18.082;2022-09-25T11:39:22;1.70;;;1.70;;
17650;SDS011;26663;59.302;18.082;2022-09-25T11:42:53;1.55;;;1.55;;
17650;SDS011;26663;59.302;18.082;2022-09-25T11:46:03;1.83;;;1.83;;
17650;SDS011;26663;59.302;18.082;2022-09-25T11:49:16;1.88;;;1.77;;
17650;SDS011;26663;59.302;18.082;2022-09-25T11:52:32;1.90;;;1.80;;
17650;SDS011;26663;59.302;18.082;2022-09-25T11:55:45;1.80;;;1.80;;
17650;SDS011;26663;59.302;18.082;2022-09-25T11:59:20;1.63;;;1.52;;
17650;SDS011;26663;59.302;18.082;2022-09-25T12:02:37;1.60;;;1.60;;
17650;SDS011;26663;59.302;18.082;2022-09-25T12:05:59;2.00;;;1.90;;
17650;SDS011;26663;59.302;18.082;2022-09-25T12:09:27;1.80;;;1.80;;
17650;SDS011;26663;59.302;18.082;2022-09-25T12:12:54;1.90;;;1.80;;
17650;SDS011;26663;59.302;18.082;2022-09-25T12:16:08;1.90;;;1.90;;
17650;SDS011;26663;59.302;18.082;2022-09-25T12:19:24;1.65;;;1.60;;
17650;SDS011;26663;59.302;18.082;2022-09-25T12:22:39;1.90;;;1.90;;
17650;SDS011;26663;59.302;18.082;2022-09-25T12:25:57;2.10;;;2.00;;
17650;SDS011;26663;59.302;18.082;2022-09-25T12:29:29;1.80;;;1.70;;
17650;SDS011;26663;59.302;18.082;2022-09-25T12:33:06;1.52;;;1.52;;
17650;SDS011;26663;59.302;18.082;2022-09-25T12:36:19;1.70;;;1.70;;
17650;SDS011;26663;59.302;18.082;2022-09-25T12:39:27;2.17;;;1.40;;
17650;SDS011;26663;59.302;18.082;2022-09-25T12:42:37;1.70;;;1.60;;
17650;SDS011;26663;59.302;18.082;2022-09-25T12:45:46;3.70;;;1.55;;
17650;SDS011;26663;59.302;18.082;2022-09-25T12:48:56;11.27;;;1.80;;
17650;SDS011;26663;59.302;18.082;2022-09-25T12:52:09;1.50;;;1.50;;
17650;SDS011;26663;59.302;18.082;2022-09-25T12:55:17;1.45;;;1.45;;
17650;SDS011;26663;59.302;18.082;2022-09-25T12:58:28;1.55;;;1.50;;
17650;SDS011;26663;59.302;18.082;2022-09-25T13:02:04;1.70;;;1.60;;
17650;SDS011;26663;59.302;18.082;2022-09-25T13:05:17;2.63;;;1.60;;
17650;SDS011;26663;59.302;18.082;2022-09-25T13:08:26;1.88;;;1.83;;
17650;SDS011;26663;59.302;18.082;2022-09-25T13:11:37;1.77;;;1.67;;
17650;SDS011;26663;59.302;18.082;2022-09-25T13:14:47;1.70;;;1.70;;
17650;SDS011;26663;59.302;18.082;2022-09-25T13:17:55;1.67;;;1.60;;
17650;SDS011;26663;59.302;18.082;2022-09-25T13:21:20;1.85;;;1.80;;
17650;SDS011;26663;59.302;18.082;2022-09-25T13:24:26;1.67;;;1.60;;
17650;SDS011;26663;59.302;18.082;2022-09-25T13:27:37;1.60;;;1.60;;
17650;SDS011;26663;59.302;18.082;2022-09-25T13:30:55;1.40;;;1.40;;
17650;SDS011;26663;59.302;18.082;2022-09-25T13:34:11;1.60;;;1.60;;
17650;SDS011;26663;59.302;18.082;2022-09-25T13:37:22;1.40;;;1.40;;
17650;SDS011;26663;59.302;18.082;2022-09-25T13:40:36;1.80;;;1.80;;
17650;SDS011;26663;59.302;18.082;2022-09-25T13:43:47;1.52;;;1.52;;
17650;SDS011;26663;59.302;18.082;2022-09-25T13:46:51;1.30;;;1.30;;
17650;SDS011;26663;59.302;18.082;2022-09-25T13:51:24;1.60;;;1.60;;
17650;SDS011;26663;59.302;18.082;2022-09-25T13:54:34;1.20;;;1.20;;
17650;SDS011;26663;59.302;18.082;2022-09-25T13:58:00;1.23;;;1.23;;
17650;SDS011;26663;59.302;18.082;2022-09-25T14:01:08;1.40;;;1.40;;
17650;SDS011;26663;59.302;18.082;2022-09-25T14:04:34;1.60;;;1.50;;
17650;SDS011;26663;59.302;18.082;2022-09-25T14:07:39;1.30;;;1.30;;
17650;SDS011;26663;59.302;18.082;2022-09-25T14:10:45;1.60;;;1.60;;
17650;SDS011;26663;59.302;18.082;2022-09-25T14:13:52;1.25;;;1.25;;
17650;SDS011;26663;59.302;18.082;2022-09-25T14:16:57;1.50;;;1.50;;
17650;SDS011;26663;59.302;18.082;2022-09-25T14:20:03;2.50;;;1.77;;
17650;SDS011;26663;59.302;18.082;2022-09-25T14:23:14;1.85;;;1.50;;
17650;SDS011;26663;59.302;18.082;2022-09-25T14:26:27;1.50;;;1.50;;
17650;SDS011;26663;59.302;18.082;2022-09-25T14:29:37;1.95;;;1.40;;
17650;SDS011;26663;59.302;18.082;2022-09-25T14:32:46;1.67;;;1.58;;
17650;SDS011;26663;59.302;18.082;2022-09-25T14:36:03;1.35;;;1.35;;
17650;SDS011;26663;59.302;18.082;2022-09-25T14:42:46;1.45;;;1.45;;
17650;SDS011;26663;59.302;18.082;2022-09-25T14:46:04;1.60;;;1.60;;
17650;SDS011;26663;59.302;18.082;2022-09-25T14:49:16;2.30;;;1.60;;
17650;SDS011;26663;59.302;18.082;2022-09-25T14:52:28;1.70;;;1.60;;
17650;SDS011;26663;59.302;18.082;2022-09-25T14:55:35;1.33;;;1.33;;
17650;SDS011;26663;59.302;18.082;2022-09-25T14:58:46;1.42;;;1.42;;
17650;SDS011;26663;59.302;18.082;2022-09-25T15:01:52;1.58;;;1.58;;
17650;SDS011;26663;59.302;18.082;2022-09-25T15:04:56;3.13;;;1.55;;
17650;SDS011;26663;59.302;18.082;2022-09-25T15:08:01;1.50;;;1.50;;
17650;SDS011;26663;59.302;18.082;2022-09-25T15:11:22;3.53;;;1.60;;
17650;SDS011;26663;59.302;18.082;2022-09-25T15:14:32;1.60;;;1.60;;
17650;SDS011;26663;59.302;18.082;2022-09-25T15:17:42;1.60;;;1.60;;
17650;SDS011;26663;59.302;18.082;2022-09-25T15:20:50;1.50;;;1.50;;
17650;SDS011;26663;59.302;18.082;2022-09-25T15:23:55;4.00;;;1.80;;
17650;SDS011;26663;59.302;18.082;2022-09-25T15:27:04;1.85;;;1.75;;
17650;SDS011;26663;59.302;18.082;2022-09-25T15:30:14;1.60;;;1.60;;
17650;SDS011;26663;59.302;18.082;2022-09-25T15:33:20;1.70;;;1.70;;
17650;SDS011;26663;59.302;18.082;2022-09-25T15:36:25;2.17;;;1.60;;
17650;SDS011;26663;59.302;18.082;2022-09-25T15:39:29;1.85;;;1.85;;
17650;SDS011;26663;59.302;18.082;2022-09-25T15:42:34;1.60;;;1.60;;
17650;SDS011;26663;59.302;18.082;2022-09-25T15:45:41;2.75;;;1.50;;
17650;SDS011;26663;59.302;18.082;2022-09-25T15:48:49;1.80;;;1.80;;
17650;SDS011;26663;59.302;18.082;2022-09-25T15:51:55;1.70;;;1.70;;
17650;SDS011;26663;59.302;18.082;2022-09-25T15:55:04;1.60;;;1.60;;
17650;SDS011;26663;59.302;18.082;2022-09-25T15:58:14;1.92;;;1.92;;
17650;SDS011;26663;59.302;18.082;2022-09-25T16:01:22;1.85;;;1.83;;
17650;SDS011;26663;59.302;18.082;2022-09-25T16:04:45;2.00;;;1.90;;
17650;SDS011;26663;59.302;18.082;2022-09-25T16:07:52;1.95;;;1.95;;
17650;SDS011;26663;59.302;18.082;2022-09-25T16:11:28;2.10;;;1.92;;
17650;SDS011;26663;59.302;18.082;2022-09-25T16:14:33;1.80;;;1.80;;
17650;SDS011;26663;59.302;18.082;2022-09-25T16:17:39;1.80;;;1.70;;
17650;SDS011;26663;59.302;18.082;2022-09-25T16:20:44;2.60;;;2.05;;
17650;SDS011;26663;59.302;18.082;2022-09-25T16:23:52;2.28;;;2.10;;
17650;SDS011;26663;59.302;18.082;2022-09-25T16:27:00;2.38;;;2.28;;
17650;SDS011;26663;59.302;18.082;2022-09-25T16:30:13;2.10;;;2.10;;
17650;SDS011;26663;59.302;18.082;2022-09-25T16:33:22;2.22;;;2.13;;
17650;SDS011;26663;59.302;18.082;2022-09-25T16:36:35;2.15;;;2.13;;
17650;SDS011;26663;59.302;18.082;2022-09-25T16:39:41;1.90;;;1.90;;
17650;SDS011;26663;59.302;18.082;2022-09-25T16:42:45;2.28;;;2.17;;
17650;SDS011;26663;59.302;18.082;2022-09-25T16:45:55;2.10;;;2.00;;
17650;SDS011;26663;59.302;18.082;2022-09-25T16:49:03;2.35;;;2.25;;
17650;SDS011;26663;59.302;18.082;2022-09-25T16:52:12;2.22;;;2.13;;
17650;SDS011;26663;59.302;18.082;2022-09-25T16:55:23;2.20;;;1.92;;
17650;SDS011;26663;59.302;18.082;2022-09-25T16:58:29;2.45;;;2.30;;
17650;SDS011;26663;59.302;18.082;2022-09-25T17:01:34;2.20;;;2.20;;
17650;SDS011;26663;59.302;18.082;2022-09-25T17:04:40;2.80;;;2.70;;
17650;SDS011;26663;59.302;18.082;2022-09-25T17:07:46;2.75;;;2.65;;
17650;SDS011;26663;59.302;18.082;2022-09-25T17:10:52;2.50;;;2.40;;
17650;SDS011;26663;59.302;18.082;2022-09-25T17:13:57;5.57;;;2.60;;
17650;SDS011;26663;59.302;18.082;2022-09-25T17:17:02;2.70;;;2.40;;
17650;SDS011;26663;59.302;18.082;2022-09-25T17:20:09;3.33;;;3.08;;
17650;SDS011;26663;59.302;18.082;2022-09-25T17:23:14;5.10;;;2.60;;
17650;SDS011;26663;59.302;18.082;2022-09-25T17:26:20;3.03;;;2.75;;
17650;SDS011;26663;59.302;18.082;2022-09-25T17:29:25;3.30;;;3.20;;
17650;SDS011;26663;59.302;18.082;2022-09-25T17:32:29;3.58;;;3.10;;
17650;SDS011;26663;59.302;18.082;2022-09-25T17:35:37;3.28;;;3.08;;
17650;SDS011;26663;59.302;18.082;2022-09-25T17:38:45;3.47;;;3.22;;
17650;SDS011;26663;59.302;18.082;2022-09-25T17:41:49;4.28;;;3.55;;
17650;SDS011;26663;59.302;18.082;2022-09-25T17:44:53;3.65;;;3.45;;
17650;SDS011;26663;59.302;18.082;2022-09-25T17:47:58;4.18;;;3.50;;
17650;SDS011;26663;59.302;18.082;2022-09-25T17:51:09;3.90;;;3.60;;
17650;SDS011;26663;59.302;18.082;2022-09-25T17:54:17;4.07;;;3.50;;
17650;SDS011;26663;59.302;18.082;2022-09-25T17:57:21;3.28;;;3.08;;
17650;SDS011;26663;59.302;18.082;2022-09-25T18:00:28;3.58;;;3.25;;
17650;SDS011;26663;59.302;18.082;2022-09-25T18:03:33;3.55;;;3.25;;
17650;SDS011;26663;59.302;18.082;2022-09-25T18:06:38;5.10;;;4.65;;
17650;SDS011;26663;59.302;18.082;2022-09-25T18:09:44;6.15;;;4.22;;
17650;SDS011;26663;59.302;18.082;2022-09-25T18:12:48;3.92;;;3.63;;
17650;SDS011;26663;59.302;18.082;2022-09-25T18:15:53;3.75;;;3.47;;
17650;SDS011;26663;59.302;18.082;2022-09-25T18:18:59;4.45;;;4.07;;
17650;SDS011;26663;59.302;18.082;2022-09-25T18:22:22;4.85;;;4.05;;
17650;SDS011;26663;59.302;18.082;2022-09-25T18:25:28;3.85;;;3.70;;
17650;SDS011;26663;59.302;18.082;2022-09-25T18:28:34;4.00;;;3.85;;
17650;SDS011;26663;59.302;18.082;2022-09-25T18:31:39;5.95;;;4.60;;
17650;SDS011;26663;59.302;18.082;2022-09-25T18:34:43;4.43;;;4.13;;
17650;SDS011;26663;59.302;18.082;2022-09-25T18:37:49;4.43;;;4.07;;
17650;SDS011;26663;59.302;18.082;2022-09-25T18:40:53;4.95;;;4.57;;
17650;SDS011;26663;59.302;18.082;2022-09-25T18:43:58;7.45;;;6.85;;
17650;SDS011;26663;59.302;18.082;2022-09-25T18:47:02;4.88;;;4.60;;